sensor_id;sensor_type;location;lat;lon;timestamp;pressure;altitude;pressure_sealevel;temperature;humidity
42111;BME280;27766;52.174;5.456;2023-12-22T00:01:19;100072.53;;;8.20;100.00
42111;BME280;27766;52.174;5.456;2023-12-22T00:03:47;100079.34;;;8.15;100.00
42111;BME280;27766;52.174;5.456;2023-12-22T00:06:14;100104.94;;;8.06;100.00
42111;BME280;27766;52.174;5.456;2023-12-22T00:08:41;100106.94;;;7.26;100.00
42111;BME280;27766;52.174;5.456;2023-12-22T00:11:08;100107.13;;;6.92;100.00
42111;BME280;27766;52.174;5.456;2023-12-22T00:13:36;100113.59;;;6.37;100.00
42111;BME280;27766;52.174;5.456;2023-12-22T00:16:03;100110.00;;;6.30;100.00
42111;BME280;27766;52.174;5.456;2023-12-22T00:18:30;100099.69;;;6.28;100.00
42111;BME280;27766;52.174;5.456;2023-12-22T00:20:59;100111.63;;;6.26;100.00
42111;BME280;27766;52.174;5.456;2023-12-22T00:23:26;100117.41;;;6.16;100.00
42111;BME280;27766;52.174;5.456;2023-12-22T00:25:53;100109.38;;;6.39;100.00
42111;BME280;27766;52.174;5.456;2023-12-22T00:28:21;100104.16;;;6.36;100.00
42111;BME280;27766;52.174;5.456;2023-12-22T00:30:49;100109.78;;;6.57;100.00
42111;BME280;27766;52.174;5.456;2023-12-22T00:33:16;100125.28;;;6.60;100.00
42111;BME280;27766;52.174;5.456;2023-12-22T00:35:43;100113.06;;;6.52;100.00
42111;BME280;27766;52.174;5.456;2023-12-22T00:38:11;100123.28;;;6.47;100.00
42111;BME280;27766;52.174;5.456;2023-12-22T00:40:38;100125.16;;;6.54;100.00
42111;BME280;27766;52.174;5.456;2023-12-22T00:43:08;100099.00;;;6.74;100.00
42111;BME280;27766;52.174;5.456;2023-12-22T00:45:36;100118.03;;;6.80;100.00
42111;BME280;27766;52.174;5.456;2023-12-22T00:48:03;100127.63;;;6.89;100.00
42111;BME280;27766;52.174;5.456;2023-12-22T00:50:30;100104.97;;;6.73;100.00
42111;BME280;27766;52.174;5.456;2023-12-22T00:52:57;100093.13;;;6.78;100.00
42111;BME280;27766;52.174;5.456;2023-12-22T00:55:25;100124.03;;;6.82;100.00
42111;BME280;27766;52.174;5.456;2023-12-22T00:57:52;100123.13;;;6.79;100.00
42111;BME280;27766;52.174;5.456;2023-12-22T01:00:19;100130.88;;;6.80;100.00
42111;BME280;27766;52.174;5.456;2023-12-22T01:02:46;100126.16;;;6.61;100.00
42111;BME280;27766;52.174;5.456;2023-12-22T01:05:13;100124.97;;;6.85;100.00
42111;BME280;27766;52.174;5.456;2023-12-22T01:07:41;100135.97;;;6.79;100.00
42111;BME280;27766;52.174;5.456;2023-12-22T01:10:08;100129.00;;;6.73;100.00
42111;BME280;27766;52.174;5.456;2023-12-22T01:12:36;100147.50;;;6.96;100.00
42111;BME280;27766;52.174;5.456;2023-12-22T01:15:03;100151.81;;;6.97;100.00
42111;BME280;27766;52.174;5.456;2023-12-22T01:17:31;100154.09;;;6.84;100.00
42111;BME280;27766;52.174;5.456;2023-12-22T01:19:58;100148.22;;;6.89;100.00
42111;BME280;27766;52.174;5.456;2023-12-22T01:22:25;100149.34;;;7.02;100.00
42111;BME280;27766;52.174;5.456;2023-12-22T01:24:52;100139.91;;;7.03;100.00
42111;BME280;27766;52.174;5.456;2023-12-22T01:27:19;100149.34;;;7.01;100.00
42111;BME280;27766;52.174;5.456;2023-12-22T01:29:46;100160.72;;;7.12;100.00
42111;BME280;27766;52.174;5.456;2023-12-22T01:32:14;100131.13;;;6.91;100.00
42111;BME280;27766;52.174;5.456;2023-12-22T01:34:41;100133.50;;;6.84;100.00
42111;BME280;27766;52.174;5.456;2023-12-22T01:37:09;100138.66;;;6.84;100.00
42111;BME280;27766;52.174;5.456;2023-12-22T01:39:36;100136.31;;;6.94;100.00
42111;BME280;27766;52.174;5.456;2023-12-22T01:42:04;100148.56;;;7.05;100.00
42111;BME280;27766;52.174;5.456;2023-12-22T01:44:31;100131.00;;;6.85;100.00
42111;BME280;27766;52.174;5.456;2023-12-22T01:46:58;100138.03;;;6.94;100.00
42111;BME280;27766;52.174;5.456;2023-12-22T01:49:26;100136.59;;;7.07;100.00
42111;BME280;27766;52.174;5.456;2023-12-22T01:51:54;100134.84;;;7.06;100.00
42111;BME280;27766;52.174;5.456;2023-12-22T01:54:21;100110.84;;;7.07;100.00
42111;BME280;27766;52.174;5.456;2023-12-22T01:56:48;100135.75;;;7.08;100.00
42111;BME280;27766;52.174;5.456;2023-12-22T01:59:16;100149.69;;;7.19;100.00
42111;BME280;27766;52.174;5.456;2023-12-22T02:01:43;100159.97;;;7.16;100.00
42111;BME280;27766;52.174;5.456;2023-12-22T02:04:14;100147.09;;;7.16;100.00
42111;BME280;27766;52.174;5.456;2023-12-22T02:06:42;100145.47;;;7.23;100.00
42111;BME280;27766;52.174;5.456;2023-12-22T02:09:09;100142.88;;;7.21;100.00
42111;BME280;27766;52.174;5.456;2023-12-22T02:11:38;100124.69;;;7.12;100.00
42111;BME280;27766;52.174;5.456;2023-12-22T02:14:06;100145.47;;;7.21;100.00
42111;BME280;27766;52.174;5.456;2023-12-22T02:16:45;100143.69;;;7.19;100.00
42111;BME280;27766;52.174;5.456;2023-12-22T02:19:23;100142.28;;;7.35;100.00
42111;BME280;27766;52.174;5.456;2023-12-22T02:22:01;100123.47;;;7.37;100.00
42111;BME280;27766;52.174;5.456;2023-12-22T02:24:34;100127.63;;;7.31;100.00
42111;BME280;27766;52.174;5.456;2023-12-22T02:29:55;100094.81;;;7.20;100.00
42111;BME280;27766;52.174;5.456;2023-12-22T02:32:32;100111.09;;;7.19;100.00
42111;BME280;27766;52.174;5.456;2023-12-22T02:35:04;100105.41;;;7.34;100.00
42111;BME280;27766;52.174;5.456;2023-12-22T02:37:36;100098.34;;;7.25;100.00
42111;BME280;27766;52.174;5.456;2023-12-22T02:40:04;100104.63;;;7.40;100.00
42111;BME280;27766;52.174;5.456;2023-12-22T02:42:32;100092.63;;;7.40;100.00
42111;BME280;27766;52.174;5.456;2023-12-22T02:45:00;100073.56;;;7.31;100.00
42111;BME280;27766;52.174;5.456;2023-12-22T02:47:28;100082.59;;;7.54;100.00
42111;BME280;27766;52.174;5.456;2023-12-22T02:49:55;100085.88;;;7.47;100.00
42111;BME280;27766;52.174;5.456;2023-12-22T02:52:22;100063.59;;;7.49;100.00
42111;BME280;27766;52.174;5.456;2023-12-22T02:54:49;100060.31;;;7.56;100.00
42111;BME280;27766;52.174;5.456;2023-12-22T02:57:16;100091.78;;;7.89;100.00
42111;BME280;27766;52.174;5.456;2023-12-22T02:59:43;100097.81;;;7.89;100.00
42111;BME280;27766;52.174;5.456;2023-12-22T03:02:11;100107.56;;;8.09;100.00
42111;BME280;27766;52.174;5.456;2023-12-22T03:04:39;100119.16;;;8.34;100.00
42111;BME280;27766;52.174;5.456;2023-12-22T03:07:07;100149.50;;;8.49;100.00
42111;BME280;27766;52.174;5.456;2023-12-22T03:09:34;100168.56;;;8.07;100.00
42111;BME280;27766;52.174;5.456;2023-12-22T03:12:06;100135.78;;;7.52;100.00
42111;BME280;27766;52.174;5.456;2023-12-22T03:14:34;100128.41;;;7.28;100.00
42111;BME280;27766;52.174;5.456;2023-12-22T03:17:02;100119.41;;;7.06;100.00
42111;BME280;27766;52.174;5.456;2023-12-22T03:19:30;100143.97;;;7.33;100.00
42111;BME280;27766;52.174;5.456;2023-12-22T03:21:57;100159.56;;;7.39;100.00
42111;BME280;27766;52.174;5.456;2023-12-22T03:24:25;100158.34;;;7.66;100.00
42111;BME280;27766;52.174;5.456;2023-12-22T03:26:55;100183.25;;;7.65;100.00
42111;BME280;27766;52.174;5.456;2023-12-22T03:29:23;100163.13;;;7.47;100.00
42111;BME280;27766;52.174;5.456;2023-12-22T03:31:50;100170.28;;;7.19;100.00
42111;BME280;27766;52.174;5.456;2023-12-22T03:34:17;100196.13;;;6.84;100.00
42111;BME280;27766;52.174;5.456;2023-12-22T03:36:45;100173.84;;;6.86;100.00
42111;BME280;27766;52.174;5.456;2023-12-22T03:39:16;100183.50;;;6.57;100.00
42111;BME280;27766;52.174;5.456;2023-12-22T03:41:43;100213.06;;;6.39;100.00
42111;BME280;27766;52.174;5.456;2023-12-22T03:44:10;100222.88;;;6.21;100.00
42111;BME280;27766;52.174;5.456;2023-12-22T03:46:39;100212.38;;;6.13;100.00
42111;BME280;27766;52.174;5.456;2023-12-22T03:49:06;100212.53;;;6.19;100.00
42111;BME280;27766;52.174;5.456;2023-12-22T03:51:33;100185.31;;;6.26;100.00
42111;BME280;27766;52.174;5.456;2023-12-22T03:54:00;100164.19;;;6.38;100.00
42111;BME280;27766;52.174;5.456;2023-12-22T03:56:28;100170.69;;;6.23;100.00
42111;BME280;27766;52.174;5.456;2023-12-22T03:58:55;100168.28;;;6.31;100.00
42111;BME280;27766;52.174;5.456;2023-12-22T04:01:23;100184.88;;;6.42;100.00
42111;BME280;27766;52.174;5.456;2023-12-22T04:04:06;100169.59;;;6.48;100.00
42111;BME280;27766;52.174;5.456;2023-12-22T04:06:38;100145.38;;;6.39;100.00
42111;BME280;27766;52.174;5.456;2023-12-22T04:09:06;100158.94;;;6.70;100.00
42111;BME280;27766;52.174;5.456;2023-12-22T04:11:33;100147.75;;;6.68;100.00
42111;BME280;27766;52.174;5.456;2023-12-22T04:14:06;100176.50;;;6.89;100.00
42111;BME280;27766;52.174;5.456;2023-12-22T04:16:36;100156.88;;;6.93;100.00
42111;BME280;27766;52.174;5.456;2023-12-22T04:19:04;100133.03;;;6.62;100.00
42111;BME280;27766;52.174;5.456;2023-12-22T04:21:36;100126.63;;;6.82;100.00
42111;BME280;27766;52.174;5.456;2023-12-22T04:24:03;100169.06;;;7.02;100.00
42111;BME280;27766;52.174;5.456;2023-12-22T04:26:31;100157.69;;;6.92;100.00
42111;BME280;27766;52.174;5.456;2023-12-22T04:28:59;100170.69;;;6.98;100.00
42111;BME280;27766;52.174;5.456;2023-12-22T04:31:26;100187.63;;;6.88;100.00
42111;BME280;27766;52.174;5.456;2023-12-22T04:33:53;100184.38;;;6.95;100.00
42111;BME280;27766;52.174;5.456;2023-12-22T04:36:20;100190.72;;;7.11;100.00
42111;BME280;27766;52.174;5.456;2023-12-22T04:38:48;100196.66;;;7.09;100.00
42111;BME280;27766;52.174;5.456;2023-12-22T04:41:15;100187.34;;;7.14;100.00
42111;BME280;27766;52.174;5.456;2023-12-22T04:43:42;100177.63;;;7.01;100.00
42111;BME280;27766;52.174;5.456;2023-12-22T04:46:09;100181.16;;;7.06;100.00
42111;BME280;27766;52.174;5.456;2023-12-22T04:48:36;100192.97;;;6.96;100.00
42111;BME280;27766;52.174;5.456;2023-12-22T04:51:04;100202.59;;;7.05;100.00
42111;BME280;27766;52.174;5.456;2023-12-22T04:53:31;100172.44;;;6.99;100.00
42111;BME280;27766;52.174;5.456;2023-12-22T04:55:58;100170.66;;;6.95;100.00
42111;BME280;27766;52.174;5.456;2023-12-22T04:58:26;100176.28;;;7.18;100.00
42111;BME280;27766;52.174;5.456;2023-12-22T05:00:53;100167.69;;;7.16;100.00
42111;BME280;27766;52.174;5.456;2023-12-22T05:03:20;100184.28;;;7.32;100.00
42111;BME280;27766;52.174;5.456;2023-12-22T05:05:48;100188.66;;;7.36;100.00
42111;BME280;27766;52.174;5.456;2023-12-22T05:08:15;100155.63;;;7.15;100.00
42111;BME280;27766;52.174;5.456;2023-12-22T05:10:43;100174.28;;;7.46;100.00
42111;BME280;27766;52.174;5.456;2023-12-22T05:13:11;100183.59;;;7.41;100.00
42111;BME280;27766;52.174;5.456;2023-12-22T05:15:38;100145.47;;;7.21;100.00
42111;BME280;27766;52.174;5.456;2023-12-22T05:18:08;100174.50;;;7.57;100.00
42111;BME280;27766;52.174;5.456;2023-12-22T05:20:36;100147.66;;;7.45;100.00
42111;BME280;27766;52.174;5.456;2023-12-22T05:23:03;100172.84;;;7.60;100.00
42111;BME280;27766;52.174;5.456;2023-12-22T05:25:31;100147.69;;;7.47;100.00
42111;BME280;27766;52.174;5.456;2023-12-22T05:27:58;100165.84;;;7.53;100.00
42111;BME280;27766;52.174;5.456;2023-12-22T05:30:25;100175.97;;;7.44;100.00
42111;BME280;27766;52.174;5.456;2023-12-22T05:32:52;100142.94;;;7.24;100.00
42111;BME280;27766;52.174;5.456;2023-12-22T05:35:21;100135.88;;;7.58;100.00
42111;BME280;27766;52.174;5.456;2023-12-22T05:37:48;100138.69;;;7.71;100.00
42111;BME280;27766;52.174;5.456;2023-12-22T05:40:16;100116.94;;;7.56;100.00
42111;BME280;27766;52.174;5.456;2023-12-22T05:42:43;100146.69;;;7.86;100.00
42111;BME280;27766;52.174;5.456;2023-12-22T05:45:11;100158.16;;;8.02;100.00
42111;BME280;27766;52.174;5.456;2023-12-22T05:47:38;100168.78;;;8.21;100.00
42111;BME280;27766;52.174;5.456;2023-12-22T05:50:06;100132.75;;;8.26;100.00
42111;BME280;27766;52.174;5.456;2023-12-22T05:52:34;100167.63;;;8.55;100.00
42111;BME280;27766;52.174;5.456;2023-12-22T05:55:02;100153.00;;;8.54;100.00
42111;BME280;27766;52.174;5.456;2023-12-22T05:57:29;100167.69;;;8.57;100.00
42111;BME280;27766;52.174;5.456;2023-12-22T05:59:56;100131.59;;;8.60;100.00
42111;BME280;27766;52.174;5.456;2023-12-22T06:02:25;100134.31;;;8.68;100.00
42111;BME280;27766;52.174;5.456;2023-12-22T06:04:52;100165.41;;;8.77;100.00
42111;BME280;27766;52.174;5.456;2023-12-22T06:07:19;100149.81;;;8.71;100.00
42111;BME280;27766;52.174;5.456;2023-12-22T06:09:52;100144.00;;;8.84;100.00
42111;BME280;27766;52.174;5.456;2023-12-22T06:12:27;100129.44;;;8.90;100.00
42111;BME280;27766;52.174;5.456;2023-12-22T06:14:54;100143.31;;;8.99;100.00
42111;BME280;27766;52.174;5.456;2023-12-22T06:17:22;100160.28;;;8.82;100.00
42111;BME280;27766;52.174;5.456;2023-12-22T06:19:49;100140.53;;;8.84;100.00
42111;BME280;27766;52.174;5.456;2023-12-22T06:22:16;100163.81;;;8.87;100.00
42111;BME280;27766;52.174;5.456;2023-12-22T06:24:43;100169.06;;;8.95;100.00
42111;BME280;27766;52.174;5.456;2023-12-22T06:27:11;100178.81;;;9.14;100.00
42111;BME280;27766;52.174;5.456;2023-12-22T06:29:39;100168.50;;;9.16;100.00
42111;BME280;27766;52.174;5.456;2023-12-22T06:32:06;100156.44;;;9.13;100.00
42111;BME280;27766;52.174;5.456;2023-12-22T06:34:33;100162.56;;;9.22;100.00
42111;BME280;27766;52.174;5.456;2023-12-22T06:37:00;100164.25;;;9.21;100.00
42111;BME280;27766;52.174;5.456;2023-12-22T06:39:28;100163.34;;;9.16;100.00
42111;BME280;27766;52.174;5.456;2023-12-22T06:41:55;100159.88;;;9.14;100.00
42111;BME280;27766;52.174;5.456;2023-12-22T06:44:22;100168.44;;;9.11;100.00
42111;BME280;27766;52.174;5.456;2023-12-22T06:46:49;100154.75;;;9.17;100.00
42111;BME280;27766;52.174;5.456;2023-12-22T06:49:16;100152.19;;;9.18;100.00
42111;BME280;27766;52.174;5.456;2023-12-22T06:51:43;100166.13;;;9.30;100.00
42111;BME280;27766;52.174;5.456;2023-12-22T06:54:11;100163.34;;;9.17;100.00
42111;BME280;27766;52.174;5.456;2023-12-22T06:56:42;100156.50;;;9.18;100.00
42111;BME280;27766;52.174;5.456;2023-12-22T06:59:09;100171.16;;;9.21;100.00
42111;BME280;27766;52.174;5.456;2023-12-22T07:01:41;100167.66;;;9.18;100.00
42111;BME280;27766;52.174;5.456;2023-12-22T07:04:16;100138.50;;;9.26;100.00
42111;BME280;27766;52.174;5.456;2023-12-22T07:06:44;100139.47;;;9.34;100.00
42111;BME280;27766;52.174;5.456;2023-12-22T07:11:50;100139.50;;;9.39;100.00
42111;BME280;27766;52.174;5.456;2023-12-22T07:14:18;100141.31;;;9.46;100.00
42111;BME280;27766;52.174;5.456;2023-12-22T07:16:45;100138.56;;;9.32;100.00
42111;BME280;27766;52.174;5.456;2023-12-22T07:19:12;100144.72;;;9.42;100.00
42111;BME280;27766;52.174;5.456;2023-12-22T07:21:40;100149.06;;;9.47;100.00
42111;BME280;27766;52.174;5.456;2023-12-22T07:24:11;100164.50;;;9.41;100.00
42111;BME280;27766;52.174;5.456;2023-12-22T07:26:40;100175.69;;;9.39;100.00
42111;BME280;27766;52.174;5.456;2023-12-22T07:29:07;100165.47;;;9.48;100.00
42111;BME280;27766;52.174;5.456;2023-12-22T07:31:35;100167.22;;;9.50;100.00
42111;BME280;27766;52.174;5.456;2023-12-22T07:34:03;100166.19;;;9.36;100.00
42111;BME280;27766;52.174;5.456;2023-12-22T07:36:30;100154.06;;;9.32;100.00
42111;BME280;27766;52.174;5.456;2023-12-22T07:38:57;100165.41;;;9.42;100.00
42111;BME280;27766;52.174;5.456;2023-12-22T07:41:26;100154.88;;;9.26;100.00
42111;BME280;27766;52.174;5.456;2023-12-22T07:43:53;100151.41;;;9.26;100.00
42111;BME280;27766;52.174;5.456;2023-12-22T07:46:21;100142.09;;;9.40;100.00
42111;BME280;27766;52.174;5.456;2023-12-22T07:48:50;100162.84;;;9.46;100.00
42111;BME280;27766;52.174;5.456;2023-12-22T07:51:18;100177.59;;;9.54;100.00
42111;BME280;27766;52.174;5.456;2023-12-22T07:53:46;100192.63;;;9.18;100.00
42111;BME280;27766;52.174;5.456;2023-12-22T07:56:13;100181.28;;;9.05;100.00
42111;BME280;27766;52.174;5.456;2023-12-22T07:58:40;100161.19;;;8.84;100.00
42111;BME280;27766;52.174;5.456;2023-12-22T08:01:08;100160.97;;;8.70;100.00
42111;BME280;27766;52.174;5.456;2023-12-22T08:03:35;100178.88;;;8.59;100.00
42111;BME280;27766;52.174;5.456;2023-12-22T08:06:06;100184.84;;;8.55;100.00
42111;BME280;27766;52.174;5.456;2023-12-22T08:08:36;100185.50;;;8.45;100.00
42111;BME280;27766;52.174;5.456;2023-12-22T08:11:03;100178.69;;;8.47;100.00
42111;BME280;27766;52.174;5.456;2023-12-22T08:13:31;100173.69;;;8.58;100.00
42111;BME280;27766;52.174;5.456;2023-12-22T08:15:58;100171.28;;;8.68;100.00
42111;BME280;27766;52.174;5.456;2023-12-22T08:18:25;100154.06;;;8.67;100.00
42111;BME280;27766;52.174;5.456;2023-12-22T08:20:52;100165.13;;;8.60;100.00
42111;BME280;27766;52.174;5.456;2023-12-22T08:23:20;100147.28;;;8.73;100.00
42111;BME280;27766;52.174;5.456;2023-12-22T08:25:49;100143.25;;;8.93;100.00
42111;BME280;27766;52.174;5.456;2023-12-22T08:28:16;100139.75;;;8.90;100.00
42111;BME280;27766;52.174;5.456;2023-12-22T08:30:43;100135.50;;;8.92;100.00
42111;BME280;27766;52.174;5.456;2023-12-22T08:33:11;100126.88;;;8.93;100.00
42111;BME280;27766;52.174;5.456;2023-12-22T08:35:38;100126.84;;;8.88;100.00
42111;BME280;27766;52.174;5.456;2023-12-22T08:38:05;100125.25;;;8.98;100.00
42111;BME280;27766;52.174;5.456;2023-12-22T08:40:33;100108.84;;;8.94;100.00
42111;BME280;27766;52.174;5.456;2023-12-22T08:43:01;100113.31;;;9.06;100.00
42111;BME280;27766;52.174;5.456;2023-12-22T08:45:28;100109.84;;;9.06;100.00
42111;BME280;27766;52.174;5.456;2023-12-22T08:47:56;100112.34;;;8.98;100.00
42111;BME280;27766;52.174;5.456;2023-12-22T08:50:24;100103.84;;;9.05;100.00
42111;BME280;27766;52.174;5.456;2023-12-22T08:52:52;100120.16;;;9.06;100.00
42111;BME280;27766;52.174;5.456;2023-12-22T08:55:19;100115.91;;;9.09;100.00
42111;BME280;27766;52.174;5.456;2023-12-22T08:57:47;100112.34;;;8.99;100.00
42111;BME280;27766;52.174;5.456;2023-12-22T09:00:25;100104.75;;;9.10;100.00
42111;BME280;27766;52.174;5.456;2023-12-22T09:02:53;100106.66;;;9.25;100.00
42111;BME280;27766;52.174;5.456;2023-12-22T09:05:21;100103.19;;;9.25;100.00
42111;BME280;27766;52.174;5.456;2023-12-22T09:07:49;100117.19;;;9.44;100.00
42111;BME280;27766;52.174;5.456;2023-12-22T09:10:18;100123.25;;;9.47;100.00
42111;BME280;27766;52.174;5.456;2023-12-22T09:12:46;100117.22;;;9.48;100.00
42111;BME280;27766;52.174;5.456;2023-12-22T09:15:13;100102.56;;;9.46;100.00
42111;BME280;27766;52.174;5.456;2023-12-22T09:17:41;100119.88;;;9.52;100.00
42111;BME280;27766;52.174;5.456;2023-12-22T09:20:11;100124.19;;;9.56;100.00
42111;BME280;27766;52.174;5.456;2023-12-22T09:22:41;100115.59;;;9.54;100.00
42111;BME280;27766;52.174;5.456;2023-12-22T09:25:08;100114.81;;;9.61;100.00
42111;BME280;27766;52.174;5.456;2023-12-22T09:27:38;100109.59;;;9.56;100.00
42111;BME280;27766;52.174;5.456;2023-12-22T09:30:06;100116.56;;;9.65;100.00
42111;BME280;27766;52.174;5.456;2023-12-22T09:32:34;100140.47;;;9.45;100.00
42111;BME280;27766;52.174;5.456;2023-12-22T09:35:02;100124.88;;;9.38;100.00
42111;BME280;27766;52.174;5.456;2023-12-22T09:37:30;100121.38;;;9.34;100.00
42111;BME280;27766;52.174;5.456;2023-12-22T09:39:57;100115.25;;;9.27;100.00
42111;BME280;27766;52.174;5.456;2023-12-22T09:42:25;100130.88;;;9.35;100.00
42111;BME280;27766;52.174;5.456;2023-12-22T09:44:53;100119.38;;;9.11;100.00
42111;BME280;27766;52.174;5.456;2023-12-22T09:47:22;100118.66;;;9.22;100.00
42111;BME280;27766;52.174;5.456;2023-12-22T09:49:51;100116.09;;;9.22;100.00
42111;BME280;27766;52.174;5.456;2023-12-22T09:52:20;100121.31;;;9.29;100.00
42111;BME280;27766;52.174;5.456;2023-12-22T09:54:48;100111.09;;;9.39;100.00
42111;BME280;27766;52.174;5.456;2023-12-22T09:57:16;100111.09;;;9.37;100.00
42111;BME280;27766;52.174;5.456;2023-12-22T09:59:54;100112.91;;;9.47;100.00
42111;BME280;27766;52.174;5.456;2023-12-22T10:02:25;100115.50;;;9.46;100.00
42111;BME280;27766;52.174;5.456;2023-12-22T10:04:53;100121.50;;;9.46;100.00
42111;BME280;27766;52.174;5.456;2023-12-22T10:07:21;100119.69;;;9.36;100.00
42111;BME280;27766;52.174;5.456;2023-12-22T10:09:50;100126.88;;;9.63;100.00
42111;BME280;27766;52.174;5.456;2023-12-22T10:12:19;100127.72;;;9.62;100.00
42111;BME280;27766;52.174;5.456;2023-12-22T10:14:47;100132.13;;;9.71;100.00
42111;BME280;27766;52.174;5.456;2023-12-22T10:17:15;100144.47;;;10.03;100.00
42111;BME280;27766;52.174;5.456;2023-12-22T10:19:43;100133.22;;;9.95;100.00
42111;BME280;27766;52.174;5.456;2023-12-22T10:22:11;100140.19;;;10.04;100.00
42111;BME280;27766;52.174;5.456;2023-12-22T10:24:42;100135.25;;;10.30;100.00
42111;BME280;27766;52.174;5.456;2023-12-22T10:27:11;100132.63;;;10.25;100.00
42111;BME280;27766;52.174;5.456;2023-12-22T10:29:38;100143.00;;;10.32;100.00
42111;BME280;27766;52.174;5.456;2023-12-22T10:32:07;100144.81;;;10.39;100.00
42111;BME280;27766;52.174;5.456;2023-12-22T10:34:36;100145.75;;;10.50;100.00
42111;BME280;27766;52.174;5.456;2023-12-22T10:37:03;100141.38;;;10.40;100.00
42111;BME280;27766;52.174;5.456;2023-12-22T10:39:31;100136.91;;;10.25;100.00
42111;BME280;27766;52.174;5.456;2023-12-22T10:41:59;100138.63;;;10.23;100.00
42111;BME280;27766;52.174;5.456;2023-12-22T10:44:28;100130.00;;;10.24;100.00
42111;BME280;27766;52.174;5.456;2023-12-22T10:46:58;100136.94;;;10.31;100.00
42111;BME280;27766;52.174;5.456;2023-12-22T10:49:27;100136.88;;;10.17;100.00
42111;BME280;27766;52.174;5.456;2023-12-22T10:51:54;100142.03;;;10.20;100.00
42111;BME280;27766;52.174;5.456;2023-12-22T10:54:21;100135.94;;;10.10;100.00
42111;BME280;27766;52.174;5.456;2023-12-22T10:56:49;100130.75;;;10.12;100.00
42111;BME280;27766;52.174;5.456;2023-12-22T10:59:18;100137.75;;;10.24;100.00
42111;BME280;27766;52.174;5.456;2023-12-22T11:01:48;100118.19;;;10.51;100.00
42111;BME280;27766;52.174;5.456;2023-12-22T11:04:17;100119.69;;;10.27;100.00
42111;BME280;27766;52.174;5.456;2023-12-22T11:06:47;100122.28;;;10.28;100.00
42111;BME280;27766;52.174;5.456;2023-12-22T11:09:17;100116.25;;;10.26;100.00
42111;BME280;27766;52.174;5.456;2023-12-22T11:11:45;100115.38;;;10.23;100.00
42111;BME280;27766;52.174;5.456;2023-12-22T11:14:12;100130.06;;;10.33;100.00
42111;BME280;27766;52.174;5.456;2023-12-22T11:16:41;100138.69;;;10.30;100.00
42111;BME280;27766;52.174;5.456;2023-12-22T11:19:15;100134.31;;;10.25;100.00
42111;BME280;27766;52.174;5.456;2023-12-22T11:21:43;100125.75;;;10.29;100.00
42111;BME280;27766;52.174;5.456;2023-12-22T11:24:12;100115.47;;;10.38;100.00
42111;BME280;27766;52.174;5.456;2023-12-22T11:26:41;100119.00;;;10.47;100.00
42111;BME280;27766;52.174;5.456;2023-12-22T11:29:10;100112.91;;;10.37;100.00
42111;BME280;27766;52.174;5.456;2023-12-22T11:31:38;100111.94;;;10.27;100.00
42111;BME280;27766;52.174;5.456;2023-12-22T11:34:07;100112.91;;;10.37;100.00
42111;BME280;27766;52.174;5.456;2023-12-22T11:36:43;100102.63;;;10.44;100.00
42111;BME280;27766;52.174;5.456;2023-12-22T11:39:10;100098.19;;;10.34;100.00
42111;BME280;27766;52.174;5.456;2023-12-22T11:41:39;100108.50;;;10.26;100.00
42111;BME280;27766;52.174;5.456;2023-12-22T11:44:07;100095.38;;;10.03;100.00
42111;BME280;27766;52.174;5.456;2023-12-22T11:46:34;100100.66;;;10.20;100.00
42111;BME280;27766;52.174;5.456;2023-12-22T11:49:03;100094.75;;;10.34;100.00
42111;BME280;27766;52.174;5.456;2023-12-22T11:51:33;100120.56;;;10.29;100.00
42111;BME280;27766;52.174;5.456;2023-12-22T11:54:03;100099.94;;;10.35;100.00
42111;BME280;27766;52.174;5.456;2023-12-22T11:56:34;100071.31;;;10.17;100.00
42111;BME280;27766;52.174;5.456;2023-12-22T11:59:01;100094.63;;;10.21;100.00
42111;BME280;27766;52.174;5.456;2023-12-22T12:01:28;100075.72;;;10.25;100.00
42111;BME280;27766;52.174;5.456;2023-12-22T12:04:01;100080.03;;;10.28;100.00
42111;BME280;27766;52.174;5.456;2023-12-22T12:06:32;100069.69;;;10.26;100.00
42111;BME280;27766;52.174;5.456;2023-12-22T12:09:01;100057.63;;;10.28;100.00
42111;BME280;27766;52.174;5.456;2023-12-22T12:14:32;100054.28;;;10.40;100.00
42111;BME280;27766;52.174;5.456;2023-12-22T12:17:08;100045.69;;;10.46;100.00
42111;BME280;27766;52.174;5.456;2023-12-22T12:19:39;100031.84;;;10.38;100.00
42111;BME280;27766;52.174;5.456;2023-12-22T12:22:06;100041.38;;;10.45;100.00
42111;BME280;27766;52.174;5.456;2023-12-22T12:24:36;100052.69;;;10.63;100.00
42111;BME280;27766;52.174;5.456;2023-12-22T12:27:04;100043.28;;;10.83;100.00
42111;BME280;27766;52.174;5.456;2023-12-22T12:29:32;100061.41;;;10.83;100.00
42111;BME280;27766;52.174;5.456;2023-12-22T12:32:04;100046.78;;;10.93;100.00
42111;BME280;27766;52.174;5.456;2023-12-22T12:34:32;100056.22;;;10.83;100.00
42111;BME280;27766;52.174;5.456;2023-12-22T12:37:00;100045.91;;;10.94;100.00
42111;BME280;27766;52.174;5.456;2023-12-22T12:39:30;100052.84;;;10.93;100.00
42111;BME280;27766;52.174;5.456;2023-12-22T12:41:59;100045.00;;;10.81;100.00
42111;BME280;27766;52.174;5.456;2023-12-22T12:44:30;100033.00;;;11.00;100.00
42111;BME280;27766;52.174;5.456;2023-12-22T12:46:59;100044.25;;;11.05;100.00
42111;BME280;27766;52.174;5.456;2023-12-22T12:49:27;100054.63;;;11.10;100.00
42111;BME280;27766;52.174;5.456;2023-12-22T12:51:57;100067.56;;;11.12;100.00
42111;BME280;27766;52.174;5.456;2023-12-22T12:54:25;100060.69;;;11.17;100.00
42111;BME280;27766;52.174;5.456;2023-12-22T12:56:53;100052.06;;;11.16;100.00
42111;BME280;27766;52.174;5.456;2023-12-22T12:59:20;100064.06;;;10.99;100.00
42111;BME280;27766;52.174;5.456;2023-12-22T13:01:48;100055.47;;;11.03;100.00